Amethyst — UBSH3 — position and weather

sailwx.info

Track history (hours):
 
Tides and Currents Weather Stations Pressure Air Temp Water Temp Dewpoint Dewpoint Depression Visibility Wind Speed Wind Dir Waves Ship Positions

Amethyst

Last reported at 2017-Dec-17 23:29 UTC. Time now 2017-Dec-17 23:32 UTC.
Position N 58°40' E 017°07'.

Length 90 m; draft 6.6 m.

Type: Cargo ship. MMSI: 273358930.

Date/timePositionNaut miles runAvg speedWind from/ knotsBaromVisibWave heightAir tempDewpointWater temp
2017-Dec-17 23:29N 58°40' E 017°07'0 0.0
2017-Dec-17 22:59N 58°40' E 017°07'0 0.0
2017-Dec-17 22:23N 58°40' E 017°07'0 0.0
2017-Dec-17 21:59N 58°40' E 017°07'0 0.0
2017-Dec-17 21:26N 58°40' E 017°07'0 0.0
2017-Dec-17 20:50N 58°40' E 017°07'0 0.0
2017-Dec-17 17:38N 58°40' E 017°07'0 0.0
2017-Dec-17 17:08N 58°40' E 017°07'0 0.0
2017-Dec-17 16:56N 58°40' E 017°07'0 0.0
2017-Dec-17 16:29N 58°40' E 017°07'0 0.0
2017-Dec-17 10:20N 58°40' E 017°07'0 0.0
2017-Dec-17 09:56N 58°40' E 017°07'0 0.0
2017-Dec-17 06:17N 58°40' E 017°07'0 0.0
2017-Dec-17 05:56N 58°40' E 017°07'0 0.0
2017-Dec-16 09:14N 58°40' E 017°07'  
2017-Dec-12 06:09N 58°37' E 017°09'0 0.2
2017-Dec-12 05:56N 58°37' E 017°09'0 0.0
2017-Dec-12 05:29N 58°37' E 017°09'0 0.0
2017-Dec-12 04:59N 58°37' E 017°09'0 0.0
2017-Dec-12 04:29N 58°37' E 017°09'0 0.0
2017-Dec-12 03:59N 58°37' E 017°09'0 0.0
2017-Dec-12 03:26N 58°37' E 017°09'0 0.0
2017-Dec-12 02:56N 58°37' E 017°09'0 0.0
2017-Dec-12 02:29N 58°37' E 017°09'0 0.0
2017-Dec-12 01:59N 58°37' E 017°09'0 0.0
2017-Dec-12 01:29N 58°37' E 017°09'0 0.0
2017-Dec-12 00:59N 58°37' E 017°09'0 0.0
2017-Dec-12 00:29N 58°37' E 017°09'0 0.0
2017-Dec-11 23:56N 58°37' E 017°09'0 0.0
2017-Dec-11 23:29N 58°37' E 017°09'0 0.0
2017-Dec-11 22:59N 58°37' E 017°09'0 0.0
2017-Dec-11 22:26N 58°37' E 017°09'0 0.1
2017-Dec-11 21:59N 58°37' E 017°09'0 0.0
2017-Dec-11 21:29N 58°37' E 017°09'0 0.0
2017-Dec-11 20:59N 58°37' E 017°09'0 0.0
2017-Dec-11 20:29N 58°37' E 017°09'0 0.0
2017-Dec-11 19:53N 58°37' E 017°09'0 0.0
2017-Dec-11 19:26N 58°37' E 017°09'0 0.0
2017-Dec-11 18:59N 58°37' E 017°09'0 0.1
2017-Dec-11 18:29N 58°37' E 017°09'2 3.9
2017-Dec-11 17:57N 58°37' E 017°13'201 8.5
2017-Dec-10 18:14N 59°40' E 023°25'2 8.7
2017-Dec-10 18:00N 59°40' E 023°29'7 8.7
2017-Dec-10 17:13N 59°42' E 023°42'4 8.8
2017-Dec-10 16:44N 59°43' E 023°50'15 8.8
2017-Dec-10 15:03N 59°47' E 024°18'0 8.9
2017-Dec-10 15:01N 59°47' E 024°19'4 8.7
2017-Dec-10 14:30N 59°48' E 024°27'5 9.2
2017-Dec-10 14:00N 59°49' E 024°36'4 8.0
2017-Dec-10 13:31N 59°50' E 024°44'4 8.8
2017-Dec-10 13:01N 59°51' E 024°53'5 8.7
2017-Dec-10 12:29N 59°52' E 025°02'4 8.8
2017-Dec-10 12:00N 59°53' E 025°10'5 9.0
2017-Dec-10 11:30N 59°54' E 025°19'5 9.3
2017-Dec-10 11:00N 59°54' E 025°28'23 9.2
2017-Dec-10 08:32N 59°59' E 026°12'0 8.5
2017-Dec-10 08:31N 59°59' E 026°12'5 9.5
2017-Dec-10 08:00N 60°00' E 026°22'510.9
2017-Dec-10 07:30N 60°01' E 026°32'4 7.7
2017-Dec-10 07:00N 60°01' E 026°40'4 8.9
2017-Dec-10 06:30N 60°01' E 026°49'5 9.3
2017-Dec-10 06:00N 60°00' E 026°58'5 9.6
2017-Dec-10 05:30N 60°01' E 027°07'4 8.9
2017-Dec-10 05:00N 60°03' E 027°15'5 9.1
2017-Dec-10 04:30N 60°05' E 027°23'5 9.7
2017-Dec-10 04:00N 60°08' E 027°31'5 9.1
2017-Dec-10 03:30N 60°10' E 027°39'5 9.1
2017-Dec-10 03:00N 60°12' E 027°47'510.7
2017-Dec-10 02:30N 60°11' E 027°58'4 8.3
2017-Dec-10 02:00N 60°10' E 028°06'5 9.6
2017-Dec-10 01:30N 60°09' E 028°15'5 9.3
2017-Dec-10 01:00N 60°06' E 028°23'510.4
2017-Dec-10 00:30N 60°03' E 028°32'5 9.0
2017-Dec-09 23:59N 60°03' E 028°41'28 9.3
2017-Dec-09 20:59N 60°00' E 029°37'4 9.4
2017-Dec-09 20:30N 59°59' E 029°45'4 9.0
2017-Dec-09 20:01N 59°57' E 029°53'5 9.0
2017-Dec-09 19:30N 59°55' E 030°01'4 8.4
2017-Dec-09 19:01N 59°53' E 030°09'3 5.5
2017-Dec-09 18:30N 59°55' E 030°14'0 0.6
2017-Dec-09 18:01N 59°55' E 030°15'0 0.0
2017-Dec-09 17:29N 59°55' E 030°15'0 0.0
2017-Dec-09 16:59N 59°55' E 030°15'0 0.0
2017-Dec-09 16:29N 59°55' E 030°15'0 0.0
2017-Dec-09 15:59N 59°55' E 030°15'0 0.0
2017-Dec-09 15:29N 59°55' E 030°15'0 0.0
2017-Dec-09 14:56N 59°55' E 030°15'0 0.0
2017-Dec-09 14:29N 59°55' E 030°15'0 0.0
2017-Dec-09 13:59N 59°55' E 030°15'0 0.0
2017-Dec-09 13:29N 59°55' E 030°15'0 0.0
2017-Dec-09 12:59N 59°55' E 030°15'0 0.0
2017-Dec-09 12:29N 59°55' E 030°15'0 0.0
2017-Dec-09 11:59N 59°55' E 030°15'0 0.0
2017-Dec-09 11:29N 59°55' E 030°15'0 0.0
2017-Dec-09 10:59N 59°55' E 030°15'0 0.0
2017-Dec-09 10:29N 59°55' E 030°15'0 0.0
2017-Dec-09 09:59N 59°55' E 030°15'0 0.0
2017-Dec-09 09:29N 59°55' E 030°15'0 0.0
2017-Dec-09 08:59N 59°55' E 030°15'0 0.0
2017-Dec-09 08:29N 59°55' E 030°15'0 0.0
2017-Dec-09 07:59N 59°55' E 030°15'0 0.0
2017-Dec-09 07:26N 59°55' E 030°15'0 0.0
2017-Dec-09 06:59N 59°55' E 030°15'0 0.0
2017-Dec-09 06:29N 59°55' E 030°15'0 0.0
2017-Dec-09 05:59N 59°55' E 030°15'0 0.0
2017-Dec-09 05:29N 59°55' E 030°15'0 0.0
2017-Dec-09 04:59N 59°55' E 030°15'0 0.0
2017-Dec-09 04:29N 59°55' E 030°15'0 0.0
2017-Dec-09 03:59N 59°55' E 030°15'0 0.0
2017-Dec-09 03:29N 59°55' E 030°15'0 0.0
2017-Dec-09 02:59N 59°55' E 030°15'0 0.0
2017-Dec-09 02:29N 59°55' E 030°15'0 0.0
2017-Dec-09 01:59N 59°55' E 030°15'0 0.0
2017-Dec-09 01:29N 59°55' E 030°15'0 0.0
2017-Dec-09 00:59N 59°55' E 030°15'0 0.0
2017-Dec-09 00:29N 59°55' E 030°15'0 0.0
2017-Dec-08 23:59N 59°55' E 030°15'0 0.0
2017-Dec-08 23:29N 59°55' E 030°15'0 0.0
2017-Dec-08 22:59N 59°55' E 030°15'0 0.0
2017-Dec-08 22:29N 59°55' E 030°15'0 0.0
2017-Dec-08 21:56N 59°55' E 030°15'0 0.0
2017-Dec-08 21:29N 59°55' E 030°15'0 0.0
2017-Dec-08 20:59N 59°55' E 030°15'0 0.0
2017-Dec-08 20:29N 59°55' E 030°15'0 0.0
2017-Dec-08 19:56N 59°55' E 030°15'0 0.0
2017-Dec-08 19:29N 59°55' E 030°15'0 0.0
2017-Dec-08 18:59N 59°55' E 030°15'0 0.0
2017-Dec-08 18:29N 59°55' E 030°15'0 0.0
2017-Dec-08 17:59N 59°55' E 030°15'0 0.0
2017-Dec-08 17:29N 59°55' E 030°15'0 0.0
2017-Dec-08 16:53N 59°55' E 030°15'0 0.0
2017-Dec-08 16:29N 59°55' E 030°15'0 0.0
2017-Dec-08 15:59N 59°55' E 030°15'0 0.0
2017-Dec-08 15:29N 59°55' E 030°15'0 0.0
2017-Dec-08 14:59N 59°55' E 030°15'0 0.0
2017-Dec-08 14:29N 59°55' E 030°15'0 0.0
2017-Dec-08 13:59N 59°55' E 030°15'0 0.0
2017-Dec-08 13:29N 59°55' E 030°15'0 0.0
2017-Dec-08 12:59N 59°55' E 030°15'0 0.0
2017-Dec-08 12:29N 59°55' E 030°15'0 0.0
2017-Dec-08 11:59N 59°55' E 030°15'0 0.0
2017-Dec-08 11:29N 59°55' E 030°15'0 0.0
2017-Dec-08 10:59N 59°55' E 030°15'0 0.0
2017-Dec-08 10:26N 59°55' E 030°15'0 0.0
2017-Dec-08 09:59N 59°55' E 030°15'0 0.0
2017-Dec-08 09:29N 59°55' E 030°15'0 0.0
2017-Dec-08 08:59N 59°55' E 030°15'0 0.0
2017-Dec-08 08:28N 59°55' E 030°15'0 0.0
2017-Dec-08 07:59N 59°55' E 030°15'0 0.0
2017-Dec-08 07:26N 59°55' E 030°15'0 0.0
2017-Dec-08 06:59N 59°55' E 030°15'0 0.0
2017-Dec-08 06:29N 59°55' E 030°15'0 0.0
2017-Dec-08 05:59N 59°55' E 030°15'0 0.0
2017-Dec-08 05:29N 59°55' E 030°15'0 0.0
2017-Dec-08 04:59N 59°55' E 030°15'0 0.0
2017-Dec-08 04:26N 59°55' E 030°15'0 0.0
2017-Dec-08 03:59N 59°55' E 030°15'0 0.0
2017-Dec-08 03:29N 59°55' E 030°15'0 0.0
2017-Dec-08 02:59N 59°55' E 030°15'0 0.0
2017-Dec-08 02:29N 59°55' E 030°15'0 0.0
2017-Dec-08 01:59N 59°55' E 030°15'0 0.0
2017-Dec-08 01:26N 59°55' E 030°15'0 0.0
2017-Dec-08 00:58N 59°55' E 030°15'0 0.0
2017-Dec-08 00:28N 59°55' E 030°15'0 0.0
2017-Dec-07 23:59N 59°55' E 030°15'  
Track history (hours):
 
Tides and Currents Weather Stations Pressure Air Temp Water Temp Dewpoint Dewpoint Depression Visibility Wind Speed Wind Dir Waves Ship Positions

Amethyst

Last reported at 2017-Dec-17 23:29 UTC. Time now 2017-Dec-17 23:32 UTC.
Position N 58°40' E 017°07'.

Length 90 m; draft 6.6 m.

Type: Cargo ship. MMSI: 273358930.

Date/timePositionNaut miles runAvg speedWind from/ knotsBaromVisibWave heightAir tempDewpointWater temp
2017-Dec-17 23:29N 58°40' E 017°07'0 0.0
2017-Dec-17 22:59N 58°40' E 017°07'0 0.0
2017-Dec-17 22:23N 58°40' E 017°07'0 0.0
2017-Dec-17 21:59N 58°40' E 017°07'0 0.0
2017-Dec-17 21:26N 58°40' E 017°07'0 0.0
2017-Dec-17 20:50N 58°40' E 017°07'0 0.0
2017-Dec-17 17:38N 58°40' E 017°07'0 0.0
2017-Dec-17 17:08N 58°40' E 017°07'0 0.0
2017-Dec-17 16:56N 58°40' E 017°07'0 0.0
2017-Dec-17 16:29N 58°40' E 017°07'0 0.0
2017-Dec-17 10:20N 58°40' E 017°07'0 0.0
2017-Dec-17 09:56N 58°40' E 017°07'0 0.0
2017-Dec-17 06:17N 58°40' E 017°07'0 0.0
2017-Dec-17 05:56N 58°40' E 017°07'0 0.0
2017-Dec-16 09:14N 58°40' E 017°07'  
2017-Dec-12 06:09N 58°37' E 017°09'0 0.2
2017-Dec-12 05:56N 58°37' E 017°09'0 0.0
2017-Dec-12 05:29N 58°37' E 017°09'0 0.0
2017-Dec-12 04:59N 58°37' E 017°09'0 0.0
2017-Dec-12 04:29N 58°37' E 017°09'0 0.0
2017-Dec-12 03:59N 58°37' E 017°09'0 0.0
2017-Dec-12 03:26N 58°37' E 017°09'0 0.0
2017-Dec-12 02:56N 58°37' E 017°09'0 0.0
2017-Dec-12 02:29N 58°37' E 017°09'0 0.0
2017-Dec-12 01:59N 58°37' E 017°09'0 0.0
2017-Dec-12 01:29N 58°37' E 017°09'0 0.0
2017-Dec-12 00:59N 58°37' E 017°09'0 0.0
2017-Dec-12 00:29N 58°37' E 017°09'0 0.0
2017-Dec-11 23:56N 58°37' E 017°09'0 0.0
2017-Dec-11 23:29N 58°37' E 017°09'0 0.0
2017-Dec-11 22:59N 58°37' E 017°09'0 0.0
2017-Dec-11 22:26N 58°37' E 017°09'0 0.1
2017-Dec-11 21:59N 58°37' E 017°09'0 0.0
2017-Dec-11 21:29N 58°37' E 017°09'0 0.0
2017-Dec-11 20:59N 58°37' E 017°09'0 0.0
2017-Dec-11 20:29N 58°37' E 017°09'0 0.0
2017-Dec-11 19:53N 58°37' E 017°09'0 0.0
2017-Dec-11 19:26N 58°37' E 017°09'0 0.0
2017-Dec-11 18:59N 58°37' E 017°09'0 0.1
2017-Dec-11 18:29N 58°37' E 017°09'2 3.9
2017-Dec-11 17:57N 58°37' E 017°13'201 8.5
2017-Dec-10 18:14N 59°40' E 023°25'2 8.7
2017-Dec-10 18:00N 59°40' E 023°29'7 8.7
2017-Dec-10 17:13N 59°42' E 023°42'4 8.8
2017-Dec-10 16:44N 59°43' E 023°50'15 8.8
2017-Dec-10 15:03N 59°47' E 024°18'0 8.9
2017-Dec-10 15:01N 59°47' E 024°19'4 8.7
2017-Dec-10 14:30N 59°48' E 024°27'5 9.2
2017-Dec-10 14:00N 59°49' E 024°36'4 8.0
2017-Dec-10 13:31N 59°50' E 024°44'4 8.8
2017-Dec-10 13:01N 59°51' E 024°53'5 8.7
2017-Dec-10 12:29N 59°52' E 025°02'4 8.8
2017-Dec-10 12:00N 59°53' E 025°10'5 9.0
2017-Dec-10 11:30N 59°54' E 025°19'5 9.3
2017-Dec-10 11:00N 59°54' E 025°28'23 9.2
2017-Dec-10 08:32N 59°59' E 026°12'0 8.5
2017-Dec-10 08:31N 59°59' E 026°12'5 9.5
2017-Dec-10 08:00N 60°00' E 026°22'510.9
2017-Dec-10 07:30N 60°01' E 026°32'4 7.7
2017-Dec-10 07:00N 60°01' E 026°40'4 8.9
2017-Dec-10 06:30N 60°01' E 026°49'5 9.3
2017-Dec-10 06:00N 60°00' E 026°58'5 9.6
2017-Dec-10 05:30N 60°01' E 027°07'4 8.9
2017-Dec-10 05:00N 60°03' E 027°15'5 9.1
2017-Dec-10 04:30N 60°05' E 027°23'5 9.7
2017-Dec-10 04:00N 60°08' E 027°31'5 9.1
2017-Dec-10 03:30N 60°10' E 027°39'5 9.1
2017-Dec-10 03:00N 60°12' E 027°47'510.7
2017-Dec-10 02:30N 60°11' E 027°58'4 8.3
2017-Dec-10 02:00N 60°10' E 028°06'5 9.6
2017-Dec-10 01:30N 60°09' E 028°15'5 9.3
2017-Dec-10 01:00N 60°06' E 028°23'510.4
2017-Dec-10 00:30N 60°03' E 028°32'5 9.0
2017-Dec-09 23:59N 60°03' E 028°41'28 9.3
2017-Dec-09 20:59N 60°00' E 029°37'4 9.4
2017-Dec-09 20:30N 59°59' E 029°45'4 9.0
2017-Dec-09 20:01N 59°57' E 029°53'5 9.0
2017-Dec-09 19:30N 59°55' E 030°01'4 8.4
2017-Dec-09 19:01N 59°53' E 030°09'3 5.5
2017-Dec-09 18:30N 59°55' E 030°14'0 0.6
2017-Dec-09 18:01N 59°55' E 030°15'0 0.0
2017-Dec-09 17:29N 59°55' E 030°15'0 0.0
2017-Dec-09 16:59N 59°55' E 030°15'0 0.0
2017-Dec-09 16:29N 59°55' E 030°15'0 0.0
2017-Dec-09 15:59N 59°55' E 030°15'0 0.0
2017-Dec-09 15:29N 59°55' E 030°15'0 0.0
2017-Dec-09 14:56N 59°55' E 030°15'0 0.0
2017-Dec-09 14:29N 59°55' E 030°15'0 0.0
2017-Dec-09 13:59N 59°55' E 030°15'0 0.0
2017-Dec-09 13:29N 59°55' E 030°15'0 0.0
2017-Dec-09 12:59N 59°55' E 030°15'0 0.0
2017-Dec-09 12:29N 59°55' E 030°15'0 0.0
2017-Dec-09 11:59N 59°55' E 030°15'0 0.0
2017-Dec-09 11:29N 59°55' E 030°15'0 0.0
2017-Dec-09 10:59N 59°55' E 030°15'0 0.0
2017-Dec-09 10:29N 59°55' E 030°15'0 0.0
2017-Dec-09 09:59N 59°55' E 030°15'0 0.0
2017-Dec-09 09:29N 59°55' E 030°15'0 0.0
2017-Dec-09 08:59N 59°55' E 030°15'0 0.0
2017-Dec-09 08:29N 59°55' E 030°15'0 0.0
2017-Dec-09 07:59N 59°55' E 030°15'0 0.0
2017-Dec-09 07:26N 59°55' E 030°15'0 0.0
2017-Dec-09 06:59N 59°55' E 030°15'0 0.0
2017-Dec-09 06:29N 59°55' E 030°15'0 0.0
2017-Dec-09 05:59N 59°55' E 030°15'0 0.0
2017-Dec-09 05:29N 59°55' E 030°15'0 0.0
2017-Dec-09 04:59N 59°55' E 030°15'0 0.0
2017-Dec-09 04:29N 59°55' E 030°15'0 0.0
2017-Dec-09 03:59N 59°55' E 030°15'0 0.0
2017-Dec-09 03:29N 59°55' E 030°15'0 0.0
2017-Dec-09 02:59N 59°55' E 030°15'0 0.0
2017-Dec-09 02:29N 59°55' E 030°15'0 0.0
2017-Dec-09 01:59N 59°55' E 030°15'0 0.0
2017-Dec-09 01:29N 59°55' E 030°15'0 0.0
2017-Dec-09 00:59N 59°55' E 030°15'0 0.0
2017-Dec-09 00:29N 59°55' E 030°15'0 0.0
2017-Dec-08 23:59N 59°55' E 030°15'0 0.0
2017-Dec-08 23:29N 59°55' E 030°15'0 0.0
2017-Dec-08 22:59N 59°55' E 030°15'0 0.0
2017-Dec-08 22:29N 59°55' E 030°15'0 0.0
2017-Dec-08 21:56N 59°55' E 030°15'0 0.0
2017-Dec-08 21:29N 59°55' E 030°15'0 0.0
2017-Dec-08 20:59N 59°55' E 030°15'0 0.0
2017-Dec-08 20:29N 59°55' E 030°15'0 0.0
2017-Dec-08 19:56N 59°55' E 030°15'0 0.0
2017-Dec-08 19:29N 59°55' E 030°15'0 0.0
2017-Dec-08 18:59N 59°55' E 030°15'0 0.0
2017-Dec-08 18:29N 59°55' E 030°15'0 0.0
2017-Dec-08 17:59N 59°55' E 030°15'0 0.0
2017-Dec-08 17:29N 59°55' E 030°15'0 0.0
2017-Dec-08 16:53N 59°55' E 030°15'0 0.0
2017-Dec-08 16:29N 59°55' E 030°15'0 0.0
2017-Dec-08 15:59N 59°55' E 030°15'0 0.0
2017-Dec-08 15:29N 59°55' E 030°15'0 0.0
2017-Dec-08 14:59N 59°55' E 030°15'0 0.0
2017-Dec-08 14:29N 59°55' E 030°15'0 0.0
2017-Dec-08 13:59N 59°55' E 030°15'0 0.0
2017-Dec-08 13:29N 59°55' E 030°15'0 0.0
2017-Dec-08 12:59N 59°55' E 030°15'0 0.0
2017-Dec-08 12:29N 59°55' E 030°15'0 0.0
2017-Dec-08 11:59N 59°55' E 030°15'0 0.0
2017-Dec-08 11:29N 59°55' E 030°15'0 0.0
2017-Dec-08 10:59N 59°55' E 030°15'0 0.0
2017-Dec-08 10:26N 59°55' E 030°15'0 0.0
2017-Dec-08 09:59N 59°55' E 030°15'0 0.0
2017-Dec-08 09:29N 59°55' E 030°15'0 0.0
2017-Dec-08 08:59N 59°55' E 030°15'0 0.0
2017-Dec-08 08:28N 59°55' E 030°15'0 0.0
2017-Dec-08 07:59N 59°55' E 030°15'0 0.0
2017-Dec-08 07:26N 59°55' E 030°15'0 0.0
2017-Dec-08 06:59N 59°55' E 030°15'0 0.0
2017-Dec-08 06:29N 59°55' E 030°15'0 0.0
2017-Dec-08 05:59N 59°55' E 030°15'0 0.0
2017-Dec-08 05:29N 59°55' E 030°15'0 0.0
2017-Dec-08 04:59N 59°55' E 030°15'0 0.0
2017-Dec-08 04:26N 59°55' E 030°15'0 0.0
2017-Dec-08 03:59N 59°55' E 030°15'0 0.0
2017-Dec-08 03:29N 59°55' E 030°15'0 0.0
2017-Dec-08 02:59N 59°55' E 030°15'0 0.0
2017-Dec-08 02:29N 59°55' E 030°15'0 0.0
2017-Dec-08 01:59N 59°55' E 030°15'0 0.0
2017-Dec-08 01:26N 59°55' E 030°15'0 0.0
2017-Dec-08 00:58N 59°55' E 030°15'0 0.0
2017-Dec-08 00:28N 59°55' E 030°15'0 0.0
2017-Dec-07 23:59N 59°55' E 030°15'  

Dump ship's entire track history